• Join FlightAware (Why Join?)
  • Login
  • US Flag 
08:00PM EST


 

Airport Tracker/Info


-or-


 

Live Flight TrackerFlight Track Log ✈ ASQ446T ✈ 04-May-2013 ✈ KIAH - KSHV

Flight Track Log - Related Links

Times and Time Zones

All times are in EDT time to prevent confusion due to time zone crossing. See the ASQ446T flight status page for this flight to view local times or setup timezone preferences in your user account.

Time Position Orientation Groundspeed Altitude Reporting Facility
EDT Latitude Longitude Course Direction KTS MPH feet Rate Location/Type
08:32PM 29.9683 -95.3475 221° Southwest 151 174 600  Level Houston Center
08:32PM 29.9492 -95.3667 221° Southwest 168 193 2,900 1,800 Climbing Houston Center
08:33PM 30.0142 -95.3419 18° North 266 306 4,100 840 Climbing Houston Center
08:34PM 30.0239 -95.3358 29° Northeast 245 282 4,100  Level Houston Center
08:35PM 30.0775 -95.3006 30° Northeast 263 303 4,100  Level Houston Center
08:35PM 30.0892 -95.2956 20° North 261 300 4,100  Level Houston Center
08:35PM 30.1425 -95.2758 18° North 259 298 4,100 360 Level Houston Center
08:36PM 30.1575 -95.2708 16° North 256 295 4,500 2,940 Climbing Houston Center
08:36PM 30.2153 -95.2475 19° North 269 310 7,100 3,120 Climbing Houston Center
08:37PM 30.2294 -95.2433 14° North 267 307 7,700 3,300 Climbing Houston Center
08:38PM 30.2947 -95.2186 18° North 268 308 10,800 3,120 Climbing Houston Center
08:38PM 30.3014 -95.2172 10° North 269 310 10,900 720 Climbing Houston Center
08:39PM 30.3797 -95.1886 17° North 293 337 11,800 1,260 Climbing Houston Center
08:40PM 30.4878 -95.1400 21° North 346 398 13,500 1,680 Climbing Houston Center
08:41PM 30.5769 -95.0819 29° Northeast 363 418 15,300 1,740 Climbing Houston Center
08:42PM 30.6658 -95.0269 28° Northeast 361 415 17,100 1,740 Climbing Houston Center
08:43PM 30.7558 -94.9703 28° Northeast 364 419 18,900 1,740 Climbing Houston Center
08:44PM 30.8467 -94.9142 28° Northeast 367 422 20,700 1,740 Climbing Houston Center
08:45PM 30.9383 -94.8569 28° Northeast 372 428 22,500 1,140 Climbing Houston Center
08:46PM 31.0442 -94.7900 28° Northeast 388 447 23,000 240 Climbing Fort Worth Center
08:47PM 31.1369 -94.7339 27° Northeast 380 437 23,000  Level Fort Worth Center
08:48PM 31.2439 -94.6631 30° Northeast 405 466 23,000  Level Fort Worth Center
08:49PM 31.3489 -94.5917 30° Northeast 424 488 23,000 -1,200 Level Fort Worth Center
08:50PM 31.4639 -94.5103 31° Northeast 434 499 20,600 -2,460 Descending Fort Worth Center
08:51PM 31.5583 -94.4464 30° Northeast 421 484 18,100 -2,460 Descending Fort Worth Center
08:52PM 31.6550 -94.3797 30° Northeast 405 466 15,700 -2,340 Descending Fort Worth Center
08:53PM 31.7475 -94.3158 30° Northeast 390 449 13,500 -1,680 Descending Fort Worth Center
08:54PM 31.8028 -94.2772 31° Northeast 378 435 13,000 -540 Descending Fort Worth Center
08:54PM 31.8356 -94.2542 31° Northeast 377 434 13,000  Level Fort Worth Center
08:55PM 31.9053 -94.2053 31° Northeast 365 420 13,000 -540 Level Fort Worth Center
08:56PM 32.0058 -94.1381 30° Northeast 353 406 12,000 -1,380 Descending Fort Worth Center
08:57PM 32.0694 -94.0939 30° Northeast 310 357 10,300 -1,800 Descending Fort Worth Center
08:58PM 32.1433 -94.0422 31° Northeast 287 330 8,400 -1,500 Descending Fort Worth Center
08:59PM 32.2006 -93.9983 33° Northeast 282 325 7,300 -1,380 Descending Fort Worth Center
09:00PM 32.2336 -93.9089 66° East 267 307 5,700 -1,620 Descending Fort Worth Center
09:01PM 32.2625 -93.8292 67° East 261 300 4,100 -1,440 Descending Fort Worth Center
09:02PM 32.3136 -93.7853 36° Northeast 229 264 2,900 -1,080 Descending Fort Worth Center
09:03PM 32.3611 -93.7736 12° North 205 236 2,000 -900 Descending Fort Worth Center
09:04PM 32.4014 -93.7867 345° North 143 165 1,200 -720 Descending Fort Worth Center
09:05PM 32.4228 -93.8081 320° Northwest 123 142 600 -420 Descending Fort Worth Center
09:06PM 32.4525 -93.8314 326° Northwest 123 142 400 -240 Descending Fort Worth Center